Time;durP1;ratioP1;P1;durP2;ratioP2;P2;SDS_P1;SDS_P2;PMS_P1;PMS_P2;Temp;Humidity;BMP_temperature;BMP_pressure;BME280_temperature;BME280_humidity;BME280_pressure;Samples;Min_cycle;Max_cycle;Signal;HPM_P1;HPM_P2
2023/05/27 00:00:50;;;;;;;10.23;5.32;;;;;;;9.15;100.00;97972.19;5001060;28;20046;-59
2023/05/27 00:03:17;;;;;;;13.65;6.15;;;;;;;9.11;100.00;97961.00;5002851;28;20073;-59
2023/05/27 00:05:43;;;;;;;9.95;5.70;;;;;;;8.95;100.00;97965.16;5003670;28;20072;-59
2023/05/27 00:08:10;;;;;;;11.95;6.53;;;;;;;8.92;100.00;97962.09;5004070;28;20057;-59
2023/05/27 00:10:37;;;;;;;13.43;6.35;;;;;;;9.03;100.00;97966.72;4995017;28;20064;-58
2023/05/27 00:13:04;;;;;;;8.05;4.97;;;;;;;8.96;100.00;97971.38;4997640;28;20038;-58
2023/05/27 00:15:30;;;;;;;12.88;5.93;;;;;;;8.96;100.00;97969.50;5002029;28;22026;-58
2023/05/27 00:18:01;;;;;;;10.85;4.90;;;;;;;9.01;100.00;97966.13;5004154;28;20065;-59
2023/05/27 00:20:30;;;;;;;11.00;4.75;;;;;;;8.94;100.00;97970.78;4993065;28;20125;-59
2023/05/27 00:22:59;;;;;;;10.88;4.80;;;;;;;9.04;100.00;97971.09;5002295;28;20073;-60
2023/05/27 00:25:26;;;;;;;12.48;4.90;;;;;;;8.99;100.00;97968.22;4998243;28;20122;-59
2023/05/27 00:27:54;;;;;;;11.48;4.90;;;;;;;9.01;100.00;97976.09;5004201;28;20056;-58
2023/05/27 00:30:21;;;;;;;11.75;5.18;;;;;;;8.96;100.00;97968.69;4993056;28;20136;-59
2023/05/27 00:32:47;;;;;;;9.38;4.68;;;;;;;8.90;100.00;97973.13;5002509;28;20048;-58
2023/05/27 00:35:14;;;;;;;9.40;4.60;;;;;;;8.95;100.00;97965.16;4994939;28;20222;-59
2023/05/27 00:37:41;;;;;;;9.40;5.18;;;;;;;8.99;100.00;97962.81;5003267;28;20061;-59
2023/05/27 00:40:14;;;;;;;9.20;4.55;;;;;;;8.95;100.00;97973.25;5001416;28;20041;-59
2023/05/27 00:42:40;;;;;;;9.13;4.65;;;;;;;8.98;100.00;97967.41;5003975;28;20700;-58
2023/05/27 00:45:08;;;;;;;10.00;4.35;;;;;;;8.93;100.00;97961.88;4997777;28;20066;-58
2023/05/27 00:47:35;;;;;;;9.43;4.43;;;;;;;9.01;100.00;97963.44;4978679;28;20033;-58
2023/05/27 00:50:03;;;;;;;13.68;5.38;;;;;;;9.07;100.00;97970.59;4994792;28;20038;-59
2023/05/27 00:52:30;;;;;;;9.82;4.60;;;;;;;9.05;100.00;97970.03;5000893;28;20149;-60
2023/05/27 00:54:57;;;;;;;9.38;5.15;;;;;;;9.05;100.00;97958.38;4984108;28;20145;-58
2023/05/27 00:57:25;;;;;;;10.45;4.75;;;;;;;9.06;100.00;97958.16;4991726;28;20042;-59
2023/05/27 00:59:51;;;;;;;11.85;4.72;;;;;;;9.26;99.91;97954.38;4997005;28;20053;-59
2023/05/27 01:02:18;;;;;;;12.07;4.72;;;;;;;9.31;99.88;97953.69;4992257;28;20146;-60
2023/05/27 01:04:46;;;;;;;9.75;3.72;;;;;;;9.25;99.31;97955.41;4999944;28;20079;-59
2023/05/27 01:07:34;;;;;;;12.35;4.15;;;;;;;8.98;100.00;97958.47;5002285;28;20049;-58
2023/05/27 01:10:18;;;;;;;11.68;4.68;;;;;;;9.12;100.00;97956.44;4999551;28;20559;-59
2023/05/27 01:12:54;;;;;;;11.05;4.57;;;;;;;9.00;100.00;97952.84;4999981;28;20050;-59
2023/05/27 01:15:23;;;;;;;10.25;4.53;;;;;;;9.09;100.00;97951.47;4996010;28;20582;-59
2023/05/27 01:17:55;;;;;;;11.25;4.40;;;;;;;9.17;99.83;97948.47;4983843;28;20058;-60
2023/05/27 01:20:22;;;;;;;;;;;;;;;9.13;99.33;97954.56;4999004;28;20053;-58
2023/05/27 01:22:52;;;;;;;10.65;4.30;;;;;;;8.88;100.00;97950.09;4997066;28;19929;-59
2023/05/27 01:25:21;;;;;;;12.38;3.95;;;;;;;8.64;100.00;97947.25;4996501;28;20042;-59
2023/05/27 01:27:48;;;;;;;12.85;4.60;;;;;;;8.78;100.00;97946.06;4993944;28;20046;-59
2023/05/27 01:30:15;;;;;;;14.70;4.07;;;;;;;8.83;100.00;97948.06;5000091;28;20045;-59
2023/05/27 01:32:54;;;;;;;12.63;4.50;;;;;;;9.02;99.69;97943.47;4999623;28;20073;-59
2023/05/27 01:35:26;;;;;;;6.93;3.88;;;;;;;8.84;100.00;97939.72;4996019;28;20056;-59
2023/05/27 01:37:55;;;;;;;13.45;4.35;;;;;;;8.49;100.00;97936.78;5002021;28;20134;-60
2023/05/27 01:40:24;;;;;;;12.75;4.82;;;;;;;8.40;100.00;97934.38;4988858;28;20046;-59
2023/05/27 01:42:52;;;;;;;12.77;5.47;;;;;;;8.42;100.00;97934.16;4999195;28;20072;-59
2023/05/27 01:45:19;;;;;;;14.15;5.07;;;;;;;8.53;100.00;97927.22;5014971;28;20049;-59
2023/05/27 01:47:46;;;;;;;9.80;4.22;;;;;;;8.62;100.00;97928.56;5002717;28;20049;-58
2023/05/27 01:50:12;;;;;;;11.98;4.25;;;;;;;8.59;100.00;97926.34;4997057;28;20480;-58
2023/05/27 01:52:39;;;;;;;12.30;4.72;;;;;;;8.46;100.00;97925.41;4999654;28;20057;-59
2023/05/27 01:55:07;;;;;;;12.68;4.47;;;;;;;8.42;100.00;97920.66;4993816;28;20054;-59
2023/05/27 01:57:35;;;;;;;11.05;4.40;;;;;;;8.49;100.00;97928.69;5000770;28;20100;-59
2023/05/27 02:00:04;;;;;;;12.00;4.50;;;;;;;8.35;100.00;97920.75;4997939;28;20076;-59
2023/05/27 02:02:42;;;;;;;8.27;4.05;;;;;;;8.35;100.00;97923.44;4996138;28;20052;-59
2023/05/27 02:05:11;;;;;;;13.10;4.75;;;;;;;8.25;100.00;97921.25;4992180;28;20042;-57
2023/05/27 02:07:38;;;;;;;9.10;3.97;;;;;;;8.20;100.00;97919.25;5003143;28;20088;-58
2023/05/27 02:10:06;;;;;;;12.02;4.53;;;;;;;8.29;100.00;97922.44;4998069;28;20533;-60
2023/05/27 02:12:32;;;;;;;10.43;3.95;;;;;;;8.23;100.00;97914.44;4992543;28;20149;-59
2023/05/27 02:14:59;;;;;;;10.70;4.10;;;;;;;8.10;100.00;97910.81;5005024;28;20048;-58
2023/05/27 02:17:27;;;;;;;7.72;4.20;;;;;;;8.18;100.00;97918.63;5002604;28;20038;-59
2023/05/27 02:19:55;;;;;;;11.32;3.72;;;;;;;8.14;100.00;97913.91;5002561;28;20050;-58
2023/05/27 02:22:22;;;;;;;14.60;4.85;;;;;;;8.09;100.00;97917.25;5003660;28;20045;-59
2023/05/27 02:24:50;;;;;;;10.18;4.70;;;;;;;8.05;100.00;97916.06;5005069;28;20133;-58
2023/05/27 02:27:17;;;;;;;9.27;4.85;;;;;;;8.06;100.00;97912.31;5001131;28;20054;-59
2023/05/27 02:29:43;;;;;;;9.95;4.30;;;;;;;8.15;100.00;97907.47;5001416;28;20046;-59
2023/05/27 02:32:10;;;;;;;12.70;4.60;;;;;;;8.03;100.00;97910.88;5003766;28;20104;-59
2023/05/27 02:34:37;;;;;;;12.55;4.93;;;;;;;8.07;100.00;97913.94;5002819;28;20049;-60
2023/05/27 02:37:04;;;;;;;8.73;4.63;;;;;;;7.97;100.00;97906.41;4999885;28;20093;-58
2023/05/27 02:39:31;;;;;;;15.38;4.47;;;;;;;7.96;100.00;97912.00;5001879;28;21351;-59
2023/05/27 02:41:58;;;;;;;10.65;3.97;;;;;;;7.86;100.00;97912.50;4998661;28;20034;-59
2023/05/27 02:44:24;;;;;;;13.52;3.90;;;;;;;7.92;100.00;97912.44;4995091;28;20218;-59
2023/05/27 02:46:51;;;;;;;7.93;4.10;;;;;;;7.79;100.00;97910.69;4997965;28;20045;-57
2023/05/27 02:49:19;;;;;;;11.38;4.03;;;;;;;7.81;100.00;97916.69;5000347;28;20161;-58
2023/05/27 02:51:45;;;;;;;12.07;4.53;;;;;;;7.84;100.00;97906.47;4997734;28;20105;-59
2023/05/27 02:54:12;;;;;;;9.77;4.20;;;;;;;7.78;100.00;97919.00;4988425;28;20128;-59
2023/05/27 02:56:39;;;;;;;11.88;4.50;;;;;;;7.81;100.00;97915.84;5003411;28;20037;-58
2023/05/27 02:59:05;;;;;;;15.57;4.47;;;;;;;7.83;100.00;97913.75;5002911;28;20057;-59
2023/05/27 03:01:32;;;;;;;12.05;4.85;;;;;;;7.83;100.00;97913.75;4999636;28;20050;-58
2023/05/27 03:03:59;;;;;;;10.98;5.20;;;;;;;7.82;100.00;97904.03;5000788;28;20537;-59
2023/05/27 03:06:25;;;;;;;9.57;5.18;;;;;;;7.71;100.00;97910.97;5002605;28;20103;-59
2023/05/27 03:08:52;;;;;;;14.27;4.70;;;;;;;7.76;100.00;97907.59;5002976;28;20053;-59
2023/05/27 03:11:18;;;;;;;8.75;4.10;;;;;;;7.55;100.00;97906.94;5003769;28;20574;-59
2023/05/27 03:13:45;;;;;;;14.52;4.43;;;;;;;7.53;100.00;97909.03;5002709;28;20471;-59
2023/05/27 03:16:13;;;;;;;10.07;4.55;;;;;;;7.52;100.00;97907.38;4997849;28;20405;-59
2023/05/27 03:18:40;;;;;;;13.10;4.70;;;;;;;7.71;100.00;97912.84;4992959;28;20046;-59
2023/05/27 03:21:07;;;;;;;13.45;4.60;;;;;;;7.67;100.00;97904.38;4996502;28;20037;-59
2023/05/27 03:23:33;;;;;;;10.13;4.10;;;;;;;7.49;100.00;97910.50;4998019;28;20563;-59
2023/05/27 03:26:00;;;;;;;12.02;4.78;;;;;;;7.57;100.00;97909.41;4994504;28;20127;-59
2023/05/27 03:28:28;;;;;;;11.40;4.47;;;;;;;7.59;100.00;97908.13;5000345;28;20050;-59
2023/05/27 03:30:56;;;;;;;12.32;4.35;;;;;;;7.66;100.00;97916.16;4999446;28;20053;-59
2023/05/27 03:33:39;;;;;;;12.38;4.82;;;;;;;7.47;100.00;97910.72;4996329;28;22025;-58
2023/05/27 03:36:07;;;;;;;13.38;4.45;;;;;;;7.48;100.00;97917.75;4990255;28;20054;-58
2023/05/27 03:38:33;;;;;;;11.85;4.88;;;;;;;7.54;100.00;97913.38;4992104;28;20050;-58
2023/05/27 03:41:00;;;;;;;11.00;4.30;;;;;;;7.48;100.00;97911.56;4997177;28;20061;-59
2023/05/27 03:43:27;;;;;;;13.98;4.10;;;;;;;7.39;100.00;97908.28;4990829;28;20034;-59
2023/05/27 03:45:53;;;;;;;14.98;4.60;;;;;;;7.34;100.00;97911.63;4997978;28;20057;-58
2023/05/27 03:48:20;;;;;;;9.27;4.93;;;;;;;7.36;100.00;97912.25;5001476;28;20117;-58
2023/05/27 03:50:47;;;;;;;11.68;4.80;;;;;;;7.48;100.00;97912.38;4995198;28;20056;-59
2023/05/27 03:53:14;;;;;;;7.97;4.13;;;;;;;7.57;100.00;97915.63;5012622;28;20050;-59
2023/05/27 03:55:41;;;;;;;13.90;4.78;;;;;;;7.49;100.00;97923.97;4993654;28;20601;-58
2023/05/27 03:58:08;;;;;;;13.02;4.70;;;;;;;7.55;100.00;97923.09;4995067;28;20042;-57
2023/05/27 04:00:38;;;;;;;14.38;4.78;;;;;;;7.62;100.00;97917.66;5001586;28;20148;-59
2023/05/27 04:03:05;;;;;;;16.85;4.38;;;;;;;7.61;100.00;97916.00;4992162;28;20073;-58
2023/05/27 04:05:32;;;;;;;10.82;4.53;;;;;;;7.71;100.00;97915.53;4992848;28;20042;-59
2023/05/27 04:08:03;;;;;;;14.55;4.50;;;;;;;7.78;100.00;97919.00;4993470;28;20077;-59
2023/05/27 04:10:29;;;;;;;9.30;3.97;;;;;;;7.81;100.00;97913.97;4991344;28;20054;-58
2023/05/27 04:12:56;;;;;;;14.07;4.30;;;;;;;7.91;100.00;97907.25;4999497;28;20056;-60
2023/05/27 04:15:22;;;;;;;13.48;4.80;;;;;;;7.81;100.00;97913.16;4996732;28;20034;-59
2023/05/27 04:17:50;;;;;;;16.35;4.22;;;;;;;7.88;100.00;97905.84;4987967;28;20676;-58
2023/05/27 04:20:17;;;;;;;11.40;4.25;;;;;;;7.92;100.00;97912.44;4994137;28;20046;-59
2023/05/27 04:22:47;;;;;;;13.02;4.03;;;;;;;8.02;100.00;97911.94;4995404;28;20633;-60
2023/05/27 04:25:14;;;;;;;12.20;4.25;;;;;;;8.07;100.00;97913.94;5014085;28;20065;-60
2023/05/27 04:27:59;;;;;;;9.52;3.92;;;;;;;8.15;100.00;97910.16;4994915;28;20104;-58
2023/05/27 04:30:27;;;;;;;10.43;4.90;;;;;;;8.03;100.00;97916.28;4986350;28;20145;-59
2023/05/27 04:32:54;;;;;;;12.10;4.03;;;;;;;8.09;100.00;97922.66;4994137;28;20045;-59
2023/05/27 04:35:21;;;;;;;10.70;4.78;;;;;;;8.11;100.00;97909.75;5000555;28;20056;-58
2023/05/27 04:37:48;;;;;;;11.23;4.53;;;;;;;8.25;100.00;97918.56;4994856;28;20056;-60
2023/05/27 04:40:16;;;;;;;12.18;3.85;;;;;;;8.48;100.00;97916.25;4997982;28;20096;-58
2023/05/27 04:43:05;;;;;;;11.45;3.75;;;;;;;8.67;100.00;97917.09;4998365;28;20132;-58
2023/05/27 04:45:31;;;;;;;15.77;4.88;;;;;;;8.63;100.00;97915.91;4994598;28;20054;-59
2023/05/27 04:48:00;;;;;;;11.10;4.72;;;;;;;8.79;100.00;97914.47;4990855;28;20732;-59
2023/05/27 04:50:27;;;;;;;13.15;3.95;;;;;;;8.94;100.00;97912.19;4991284;28;20069;-58
2023/05/27 04:52:54;;;;;;;11.50;3.72;;;;;;;9.05;100.00;97907.91;4997944;28;20042;-59
2023/05/27 04:55:21;;;;;;;6.45;3.42;;;;;;;9.16;100.00;97905.44;4991337;28;20046;-60
2023/05/27 04:57:48;;;;;;;18.25;4.85;;;;;;;9.39;99.15;97906.59;4992135;28;20136;-59
2023/05/27 05:00:22;;;;;;;13.68;3.90;;;;;;;9.57;96.20;97897.56;4996924;28;20050;-59
2023/05/27 05:03:00;;;;;;;13.70;4.03;;;;;;;9.70;96.16;97901.94;4992863;28;20045;-59
2023/05/27 05:05:28;;;;;;;7.63;3.78;;;;;;;9.85;94.99;97901.50;4999971;28;20053;-60
2023/05/27 05:07:54;;;;;;;15.05;3.85;;;;;;;9.99;92.91;97908.31;5001020;28;20129;-59
2023/05/27 05:10:21;;;;;;;10.75;3.50;;;;;;;10.20;89.59;97908.78;5000203;28;20049;-60
2023/05/27 05:12:50;;;;;;;15.10;3.88;;;;;;;10.37;88.01;97908.06;5002048;28;20049;-59
2023/05/27 05:15:16;;;;;;;7.60;3.30;;;;;;;10.57;87.14;97909.63;5000784;28;20049;-60
2023/05/27 05:17:43;;;;;;;13.45;3.63;;;;;;;10.68;86.17;97905.22;5001709;28;20100;-59
2023/05/27 05:20:12;;;;;;;17.13;3.42;;;;;;;10.85;84.91;97911.53;4997689;28;20042;-59
2023/05/27 05:22:39;;;;;;;11.85;3.58;;;;;;;10.93;83.77;97908.44;5000766;28;20088;-59
2023/05/27 05:25:06;;;;;;;10.10;3.92;;;;;;;10.99;82.97;97911.25;5000324;28;20434;-58
2023/05/27 05:27:38;;;;;;;10.68;3.58;;;;;;;11.10;82.96;97914.97;4994231;28;20049;-59
2023/05/27 05:30:05;;;;;;;16.25;3.72;;;;;;;11.15;82.30;97913.19;5000962;28;20049;-59
2023/05/27 05:32:32;;;;;;;10.35;3.10;;;;;;;11.22;80.67;97917.63;5000599;28;20049;-58
2023/05/27 05:34:59;;;;;;;12.75;3.15;;;;;;;11.23;80.77;97917.41;5001727;28;20052;-59
2023/05/27 05:37:26;;;;;;;10.13;3.13;;;;;;;11.34;81.50;97917.56;4992958;28;20042;-58
2023/05/27 05:39:55;;;;;;;10.63;3.53;;;;;;;11.39;80.52;97921.19;5000243;28;20050;-58
2023/05/27 05:42:24;;;;;;;10.65;3.33;;;;;;;11.45;79.85;97917.53;4999727;28;20045;-60
2023/05/27 05:44:52;;;;;;;10.68;2.80;;;;;;;11.58;80.10;97918.28;5001041;28;20046;-60
2023/05/27 05:47:19;;;;;;;9.07;2.75;;;;;;;11.65;78.95;97920.84;4993319;28;20038;-59
2023/05/27 05:49:54;;;;;;;8.65;3.55;;;;;;;11.69;78.91;97914.66;4999070;28;20046;-59
2023/05/27 05:52:20;;;;;;;10.93;3.58;;;;;;;11.79;78.81;97916.72;4997911;28;20528;-58
2023/05/27 05:54:47;;;;;;;11.63;3.90;;;;;;;11.81;78.24;97917.31;5005379;28;20052;-60
2023/05/27 05:57:14;;;;;;;9.38;3.25;;;;;;;11.94;77.82;97918.06;5000433;28;20038;-58
2023/05/27 05:59:41;;;;;;;14.07;3.50;;;;;;;12.04;77.30;97915.50;5005094;28;20042;-59
2023/05/27 06:02:08;;;;;;;10.68;3.20;;;;;;;12.09;76.54;97918.31;4993299;28;20620;-59
2023/05/27 06:04:35;;;;;;;13.60;4.25;;;;;;;12.21;76.41;97917.41;5005659;28;20492;-59
2023/05/27 06:07:02;;;;;;;10.38;2.92;;;;;;;12.33;75.70;97914.56;4996035;28;20045;-59
2023/05/27 06:09:36;;;;;;;10.38;3.40;;;;;;;12.31;75.65;97919.44;5002166;28;20053;-59
2023/05/27 06:12:07;;;;;;;9.65;3.67;;;;;;;12.33;75.64;97904.53;5001249;28;20054;-60
2023/05/27 06:14:40;;;;;;;10.95;2.83;;;;;;;12.36;74.78;97911.34;5005476;28;20050;-59
2023/05/27 06:17:08;;;;;;;10.80;3.40;;;;;;;12.41;75.11;97919.56;5003694;28;20054;-59
2023/05/27 06:19:34;;;;;;;9.48;3.08;;;;;;;12.51;74.51;97915.34;5001425;28;20623;-59
2023/05/27 06:22:02;;;;;;;10.20;4.05;;;;;;;12.59;74.47;97912.19;4998963;28;20053;-58
2023/05/27 06:24:37;;;;;;;13.70;3.83;;;;;;;12.69;73.95;97906.91;5005481;28;20060;-59
2023/05/27 06:27:14;;;;;;;12.65;3.33;;;;;;;12.80;74.59;97907.03;5002518;28;20046;-58
2023/05/27 06:29:40;;;;;;;10.35;3.17;;;;;;;12.88;73.32;97906.56;5001798;28;20678;-59
2023/05/27 06:32:08;;;;;;;12.13;3.05;;;;;;;12.97;73.72;97909.69;5001516;28;20066;-59
2023/05/27 06:34:35;;;;;;;10.32;3.50;;;;;;;13.17;73.43;97905.53;4994904;28;20054;-59
2023/05/27 06:37:02;;;;;;;13.80;3.65;;;;;;;13.20;72.18;97910.47;4996853;28;20033;-59
2023/05/27 06:39:28;;;;;;;8.93;2.60;;;;;;;13.26;71.94;97901.28;4994775;28;20140;-59
2023/05/27 06:41:55;;;;;;;10.57;3.25;;;;;;;13.25;71.71;97908.63;4997963;28;20058;-59
2023/05/27 06:44:39;;;;;;;12.23;3.63;;;;;;;13.22;71.25;97906.41;4998465;28;20068;-59
2023/05/27 06:47:12;;;;;;;7.72;2.80;;;;;;;13.37;72.38;97907.63;4994433;28;20041;-59
2023/05/27 06:49:40;;;;;;;8.50;3.35;;;;;;;13.56;70.80;97910.84;4998226;28;20129;-59
2023/05/27 06:52:07;;;;;;;10.90;3.47;;;;;;;13.68;69.72;97904.41;4996162;28;20462;-59
2023/05/27 06:55:09;;;;;;;10.70;2.75;;;;;;;13.77;69.42;97902.84;4982388;28;20713;-59
2023/05/27 06:57:54;;;;;;;7.38;2.70;;;;;;;13.81;68.77;97909.41;4993824;28;20069;-59
2023/05/27 07:00:32;;;;;;;9.27;3.10;;;;;;;13.81;68.46;97909.41;4997691;28;20049;-59
2023/05/27 07:03:15;;;;;;;9.60;3.30;;;;;;;13.88;68.28;97909.19;5000818;28;20188;-59
2023/05/27 07:05:42;;;;;;;10.98;3.65;;;;;;;13.98;68.40;97911.19;4994988;28;20049;-59
2023/05/27 07:08:09;;;;;;;7.57;2.88;;;;;;;14.00;67.32;97909.00;5001675;28;20057;-59
2023/05/27 07:10:37;;;;;;;8.68;3.53;;;;;;;14.04;66.69;97905.50;4994173;28;20464;-59
2023/05/27 07:13:04;;;;;;;8.57;3.35;;;;;;;13.97;67.72;97920.44;4999634;28;20049;-59
2023/05/27 07:15:51;;;;;;;13.27;3.92;;;;;;;14.16;66.54;97915.41;4998755;28;20050;-59
2023/05/27 07:18:18;;;;;;;10.40;2.75;;;;;;;14.18;66.85;97924.09;4998443;28;20130;-59
2023/05/27 07:20:45;;;;;;;9.02;3.28;;;;;;;14.25;66.75;97919.25;4996434;28;20053;-59
2023/05/27 07:23:16;;;;;;;8.00;3.40;;;;;;;14.28;65.99;97909.75;4993150;28;20063;-59
2023/05/27 07:25:46;;;;;;;;;;;;;;;14.44;65.71;97916.94;4998864;28;20600;-58
2023/05/27 07:28:12;;;;;;;12.40;4.57;;;;;;;14.44;67.40;97911.47;4999893;28;19929;-59
2023/05/27 07:30:44;;;;;;;9.27;2.85;;;;;;;14.57;65.49;97912.09;5005357;28;20078;-59
2023/05/27 07:33:11;;;;;;;11.68;3.25;;;;;;;14.65;65.36;97918.94;4999091;28;20468;-59
2023/05/27 07:35:37;;;;;;;11.00;3.47;;;;;;;14.65;65.83;97911.59;4997918;28;21496;-60
2023/05/27 07:38:04;;;;;;;8.60;3.08;;;;;;;14.89;65.54;97910.34;5001623;28;20062;-59
2023/05/27 07:40:30;;;;;;;10.93;3.42;;;;;;;14.86;63.52;97905.44;5003098;28;20061;-59
2023/05/27 07:42:57;;;;;;;10.77;3.53;;;;;;;14.87;63.18;97904.34;4999636;28;20044;-59
2023/05/27 07:45:24;;;;;;;12.23;3.83;;;;;;;14.97;63.29;97898.09;5002547;28;20406;-60
2023/05/27 07:47:50;;;;;;;11.23;3.88;;;;;;;15.02;63.37;97900.84;4997829;28;20054;-59
2023/05/27 07:50:17;;;;;;;8.60;3.10;;;;;;;15.14;63.50;97889.72;4987489;28;20054;-60
2023/05/27 07:52:54;;;;;;;11.90;3.38;;;;;;;15.16;61.41;97896.53;4997991;28;20060;-59
2023/05/27 07:55:26;;;;;;;11.07;3.80;;;;;;;15.25;61.73;97893.28;4992508;28;20591;-59
2023/05/27 07:57:56;;;;;;;13.00;4.00;;;;;;;15.34;62.96;97894.38;4995316;28;20057;-60
2023/05/27 08:00:28;;;;;;;11.35;3.50;;;;;;;15.45;61.24;97889.75;4991667;28;20720;-60
2023/05/27 08:02:55;;;;;;;10.70;3.40;;;;;;;15.51;60.43;97885.13;4978577;28;20057;-59
2023/05/27 08:05:33;;;;;;;9.57;3.50;;;;;;;15.47;61.63;97893.84;4958759;28;21089;-58
2023/05/27 08:08:08;;;;;;;9.35;3.33;;;;;;;15.51;61.19;97888.66;4993168;28;20053;-59
2023/05/27 08:10:53;;;;;;;10.48;3.45;;;;;;;15.67;61.63;97881.28;4996550;28;20072;-59
2023/05/27 08:13:41;;;;;;;13.10;4.10;;;;;;;15.69;61.38;97889.22;4995257;28;20487;-60
2023/05/27 08:16:22;;;;;;;12.45;3.75;;;;;;;15.85;61.04;97884.59;4996698;28;20061;-59
2023/05/27 08:19:02;;;;;;;13.40;3.75;;;;;;;15.83;60.39;97886.75;5001257;28;20053;-59
2023/05/27 08:22:02;;;;;;;10.27;3.72;;;;;;;15.91;60.79;97875.28;4996965;28;20124;-59
2023/05/27 08:24:49;;;;;;;11.18;3.30;;;;;;;16.01;59.60;97873.66;4998077;28;20048;-59
2023/05/27 08:27:50;;;;;;;12.93;4.18;;;;;;;16.02;59.67;97883.47;4998848;28;20057;-60
2023/05/27 08:30:24;;;;;;;10.82;3.70;;;;;;;16.07;59.31;97875.31;4999313;28;20096;-59
2023/05/27 08:32:58;;;;;;;10.40;2.95;;;;;;;16.20;59.44;97866.53;4996769;28;20457;-60
2023/05/27 08:35:25;;;;;;;12.57;3.63;;;;;;;16.22;58.79;97869.00;4965560;28;20076;-58
2023/05/27 08:37:52;;;;;;;9.48;3.10;;;;;;;16.37;59.14;97862.66;4978979;28;20050;-59
2023/05/27 08:40:19;;;;;;;10.43;4.63;;;;;;;16.44;58.83;97865.91;4997002;28;20472;-60
2023/05/27 08:42:49;;;;;;;12.68;4.40;;;;;;;16.56;59.56;97864.78;5001486;28;20089;-59
2023/05/27 08:45:16;;;;;;;12.70;3.78;;;;;;;16.67;58.30;97860.09;4993758;28;20049;-58
2023/05/27 08:47:43;;;;;;;11.80;3.95;;;;;;;16.77;58.21;97860.06;4991234;28;20525;-59
2023/05/27 08:50:16;;;;;;;12.77;3.70;;;;;;;16.93;58.19;97860.78;4993970;28;20042;-58
2023/05/27 08:52:49;;;;;;;12.32;4.10;;;;;;;17.00;57.34;97858.53;4993375;28;20096;-60
2023/05/27 08:55:21;;;;;;;12.30;4.25;;;;;;;17.01;57.32;97865.66;4995726;28;20038;-58
2023/05/27 08:57:54;;;;;;;12.80;3.70;;;;;;;17.01;57.25;97854.72;4990312;28;20161;-59
2023/05/27 09:00:21;;;;;;;9.73;3.70;;;;;;;17.03;57.34;97851.72;4996413;28;20054;-48
2023/05/27 09:02:49;;;;;;;9.98;3.78;;;;;;;17.08;57.31;97853.63;4995322;28;20069;-42
2023/05/27 09:05:17;;;;;;;13.15;4.25;;;;;;;17.37;56.47;97853.72;4996433;28;20100;-44
2023/05/27 09:07:44;;;;;;;9.48;4.32;;;;;;;17.39;55.21;97853.41;4998945;28;20120;-43
2023/05/27 09:10:10;;;;;;;11.20;4.13;;;;;;;17.34;55.57;97850.72;4988933;28;20061;-43
2023/05/27 09:12:37;;;;;;;13.95;4.43;;;;;;;17.64;56.12;97857.06;4997874;28;20500;-43
2023/05/27 09:15:04;;;;;;;12.50;4.13;;;;;;;17.61;54.91;97852.97;4998854;28;20038;-45
2023/05/27 09:17:31;;;;;;;10.35;3.40;;;;;;;17.64;55.46;97848.84;4996659;28;20091;-46
2023/05/27 09:19:57;;;;;;;10.15;3.80;;;;;;;17.68;54.90;97852.63;4998099;28;20046;-44
2023/05/27 09:22:31;;;;;;;11.98;3.60;;;;;;;17.78;54.43;97857.22;4985758;28;20046;-43
2023/05/27 09:24:58;;;;;;;11.70;3.80;;;;;;;17.70;55.43;97842.22;4972637;28;20141;-39
2023/05/27 09:27:29;;;;;;;10.82;4.53;;;;;;;17.96;54.84;97838.41;4994935;28;20525;-39
2023/05/27 09:29:57;;;;;;;12.95;3.90;;;;;;;17.95;54.25;97837.63;4994516;28;20559;-42
2023/05/27 09:32:30;;;;;;;11.77;3.83;;;;;;;17.92;53.62;97829.97;4998023;28;20049;-40
2023/05/27 09:34:57;;;;;;;9.75;3.78;;;;;;;18.16;54.19;97838.25;5000395;28;20495;-41
2023/05/27 09:37:25;;;;;;;10.05;4.20;;;;;;;18.10;53.58;97830.38;4981771;28;20057;-40
2023/05/27 09:39:52;;;;;;;13.43;4.10;;;;;;;18.15;53.45;97831.13;4991833;28;20046;-42
2023/05/27 09:42:20;;;;;;;9.82;4.22;;;;;;;18.14;53.90;97836.91;4996065;28;20065;-38
2023/05/27 09:44:48;;;;;;;10.25;4.03;;;;;;;18.27;53.72;97829.91;4998167;28;20699;-44
2023/05/27 09:47:16;;;;;;;13.10;4.05;;;;;;;18.27;53.09;97827.16;4996256;28;20045;-39
2023/05/27 09:49:43;;;;;;;11.50;3.70;;;;;;;18.30;53.05;97826.56;4992206;28;20061;-39
2023/05/27 09:52:11;;;;;;;14.15;5.07;;;;;;;18.27;53.46;97830.72;4996938;28;20044;-41
2023/05/27 09:54:38;;;;;;;8.98;3.47;;;;;;;18.46;54.15;97829.94;4997621;28;20646;-42
2023/05/27 09:57:06;;;;;;;9.13;4.53;;;;;;;18.61;53.32;97825.41;4994646;28;20042;-39
2023/05/27 09:59:34;;;;;;;10.73;4.32;;;;;;;18.75;53.19;97828.25;4997952;28;20235;-39
2023/05/27 10:02:03;;;;;;;10.20;3.45;;;;;;;18.92;53.03;97824.97;4996718;28;20663;-41
2023/05/27 10:04:30;;;;;;;12.15;4.22;;;;;;;18.92;51.93;97827.72;4998207;28;20069;-40
2023/05/27 10:06:58;;;;;;;13.80;4.22;;;;;;;18.81;52.25;97814.16;5000390;28;20042;-42
2023/05/27 10:09:25;;;;;;;11.35;4.55;;;;;;;18.83;52.32;97819.31;4997341;28;20188;-41
2023/05/27 10:11:52;;;;;;;13.43;4.13;;;;;;;18.91;51.81;97807.69;5000092;28;20046;-39
2023/05/27 10:14:19;;;;;;;13.55;5.13;;;;;;;18.89;52.60;97809.09;4999537;28;20042;-43
2023/05/27 10:17:12;;;;;;;11.15;3.83;;;;;;;19.04;51.90;97814.38;4997161;28;20117;-44
2023/05/27 10:19:50;;;;;;;10.55;4.05;;;;;;;19.23;51.40;97811.66;4993266;28;20065;-40
2023/05/27 10:22:16;;;;;;;9.88;4.18;;;;;;;19.20;51.54;97808.72;4996303;28;20132;-42
2023/05/27 10:24:48;;;;;;;13.63;4.50;;;;;;;19.40;51.49;97803.97;5000144;28;20050;-41
2023/05/27 10:27:15;;;;;;;9.27;3.67;;;;;;;19.40;51.22;97807.56;4997794;28;20706;-39
2023/05/27 10:29:41;;;;;;;8.77;4.57;;;;;;;19.01;51.26;97809.47;4999015;28;20041;-43
2023/05/27 10:32:08;;;;;;;11.02;4.20;;;;;;;19.28;52.45;97798.97;4999288;28;20042;-39
2023/05/27 10:34:43;;;;;;;9.80;3.85;;;;;;;19.56;51.78;97799.03;5001940;28;20061;-39
2023/05/27 10:37:11;;;;;;;10.18;4.05;;;;;;;19.66;51.37;97798.06;5005869;28;20057;-44
2023/05/27 10:39:37;;;;;;;9.30;3.22;;;;;;;19.83;51.28;97800.25;4998033;28;20121;-41
2023/05/27 10:42:05;;;;;;;11.35;4.45;;;;;;;19.77;50.09;97788.53;5005523;28;20049;-41
2023/05/27 10:44:37;;;;;;;12.93;5.15;;;;;;;19.76;50.78;97789.66;4992578;28;20141;-46
2023/05/27 10:47:04;;;;;;;11.50;3.95;;;;;;;19.92;50.45;97790.19;5000626;28;20133;-40
2023/05/27 10:49:37;;;;;;;9.93;4.30;;;;;;;20.07;49.64;97797.34;4989886;28;20050;-40
2023/05/27 10:52:15;;;;;;;11.13;4.30;;;;;;;20.10;48.87;97787.69;4997332;28;20697;-40
2023/05/27 10:54:43;;;;;;;12.57;4.65;;;;;;;20.13;49.56;97789.81;4996960;28;20549;-42
2023/05/27 10:57:10;;;;;;;10.52;4.00;;;;;;;19.90;49.60;97786.91;4982116;28;20106;-41
2023/05/27 10:59:41;;;;;;;12.43;4.72;;;;;;;19.96;49.03;97785.72;4962643;28;20056;-38
2023/05/27 11:02:07;;;;;;;9.50;4.75;;;;;;;20.06;49.92;97786.66;4994012;28;20046;-41
2023/05/27 11:04:37;;;;;;;8.18;4.28;;;;;;;20.25;50.02;97787.38;4999464;28;20056;-62
2023/05/27 11:07:04;;;;;;;9.18;3.70;;;;;;;20.39;47.87;97787.34;4999152;28;20537;-64
2023/05/27 11:09:51;;;;;;;9.27;3.78;;;;;;;20.60;47.36;97783.38;4996197;28;20497;-62
2023/05/27 11:12:20;;;;;;;9.60;3.97;;;;;;;20.61;47.55;97783.09;5002267;28;20092;-62
2023/05/27 11:14:56;;;;;;;10.95;4.00;;;;;;;20.79;47.38;97772.25;4997946;28;20038;-62
2023/05/27 11:17:25;;;;;;;8.27;4.00;;;;;;;20.71;47.41;97771.00;4996434;28;20049;-61
2023/05/27 11:19:53;;;;;;;9.88;4.25;;;;;;;20.83;47.54;97766.91;4996354;28;20046;-61
2023/05/27 11:22:19;;;;;;;9.77;4.00;;;;;;;21.09;46.64;97766.34;5000489;28;20042;-60
2023/05/27 11:24:59;;;;;;;8.57;4.20;;;;;;;21.25;46.92;97764.03;4995768;28;20048;-62
2023/05/27 11:27:35;;;;;;;8.63;3.92;;;;;;;21.22;45.40;97759.97;4995168;28;20133;-61
2023/05/27 11:30:10;;;;;;;9.43;4.47;;;;;;;21.32;45.74;97753.41;4998226;28;20046;-59
2023/05/27 11:32:37;;;;;;;10.57;3.65;;;;;;;21.08;45.72;97754.50;4994071;28;20042;-62
2023/05/27 11:35:05;;;;;;;9.10;3.90;;;;;;;21.24;45.06;97751.41;4996153;28;20045;-62
2023/05/27 11:37:34;;;;;;;11.13;4.85;;;;;;;21.00;45.08;97747.00;4993714;28;20057;-58
2023/05/27 11:40:01;;;;;;;9.88;4.40;;;;;;;21.28;44.78;97741.38;4995439;28;20038;-61